Ana Sayfa
METAR-TAF:

METAR-TAF

Havaalanları :

Sapporo, Japonya

Enlem: 43-07N, Boylam: 141-23E, yükseklik: 8 m

Güncel hava durumu gözlemi

Rapor saat 11:00 UTC de 1 saat ve 6 dakika önce yapıldı.
Rüzgar batı/kuzeybatıdan 10 kt
Sıcaklık -2°C
Nem 63%
Basınç 1021 hPa
Görüş mesafesi 10 km veya daha fazla
1000 ft yükseklikte az bulutlu
6000 ft yükseklikte parçalı çok bulutlu

METAR: RJCO 141100Z 29010KT 9999 FEW010 BKN060 M02/M08 Q1021

Saat: 21:06 (12:06 UTC)


TAF: eksik

4.000'den fazla havaalanı için hava durumu gözlemleri ve tahminleri (METAR ve TAF raporları).

Kullanılabilir istasyonlar harita üzerinde sarı ve kırmızı noktalarla gösterilir.

İstasyonun adını görmek için fareyi noktanın üzerinde gezdirin.

Sonrasında hava gözlem ve tahminlerini görmek için tıklayın.

Haritayı değiştirmek için: yaklaştırmak için siyah artı işaretli yeşil düğmeye ve uzaklaştırmak için de eksi işaretli düğmeye hızla tıklayın; bitişik haritalar için yeşil okları kullanın.


METAR-TAF: